Strona główna
METAR-TAF:

METAR-TAF

Lotnisko :

Kunming, Chiny

Szerokość geograficzna: 25-01N, Długość geograficzna: 102-41E, wysokość: 1892 m

Aktualna obserwacja pogody

Raport powstał 1 godzina i 13 minut temu, godzina 21:00 UTC
Wiatr 8 kt od zachodnio-południowy zachód
Temperatura 9°C
Wilgotność 53%
Ciśnienie 1022 hPa
Widzialność 10 km lub więcej
Brak chmur poniżej 1500 m i brak chmur cumulonimbus

METAR: ZPPP 202100Z 25004MPS CAVOK 09/00 Q1022 NOSIG

czas: 06:13 (22:13 UTC)

Prognoza

Raport powstał 8 godziny i 59 minut temu, godzina 13:14 UTC
Prognoza ważna od 20 godzina 18 UTC do 21 godzina 18 UTC
Wiatr 14 kt od południowy zachód
Widzialność 10 km lub więcej
Rozproszone chmury na wysokości 2600 ft
Stopniowe zmiany
od 21 godzina 02 UTC do 21 godzina 03 UTC
Wiatr 23 kt od południowy zachód w porywach dochodzący do 33 kt
Stopniowe zmiany
od 21 godzina 11 UTC do 21 godzina 12 UTC
Wiatr 14 kt od południowy zachód

TAF: ZPPP 201314Z 2018/2118 23007MPS 9999 SCT026 TX19/2108Z TN06/2023Z BECMG 2102/2103 23012G17MPS BECMG 2111/2112 23007MPS

Obserwacja i prognoza pogody dla ponad 4000 lotnisk (raport METAR i TAF).

Dostępne stacje oznaczono żółtymi i czerwonymi punktami na mapie.

Najedź kursorem aby zobaczyć nazwę stacji.

Kliknij aby zobaczyć obserwacje i prognozy pogody.

Aby zmienić mapę: kliknij na zielony przycisk z czarnym krzyżykiem, aby powiększyć; na zielony przycisk z myślnikiem, aby pomniejszyć; na zielone strzałki, aby przejść do map sąsiednich.


METAR-TAF: